Time;durP1;ratioP1;P1;durP2;ratioP2;P2;SDS_P1;SDS_P2;PMS_P1;PMS_P2;Temp;Humidity;BMP_temperature;BMP_pressure;BME280_temperature;BME280_humidity;BME280_pressure;Samples;Min_cycle;Max_cycle;Signal;HPM_P1;HPM_P2
2022/05/10 00:00:50;;;;;;;19.20;11.30;;;10.40;59.70;;;;;;5065402;28;20025;-78
2022/05/10 00:03:18;;;;;;;18.98;10.05;;;10.40;3.10;;;;;;5065966;28;20029;-78
2022/05/10 00:05:43;;;;;;;17.27;11.27;;;10.10;1.00;;;;;;5056294;28;20025;-78
2022/05/10 00:08:12;;;;;;;19.58;10.38;;;10.20;1.00;;;;;;5042856;28;20025;-79
2022/05/10 00:10:38;;;;;;;17.92;10.98;;;10.10;28.20;;;;;;5051714;28;20030;-79
2022/05/10 00:13:04;;;;;;;19.55;10.27;;;10.00;33.90;;;;;;5050889;28;20029;-78
2022/05/10 00:15:30;;;;;;;20.05;11.25;;;10.00;56.70;;;;;;5054120;28;20041;-79
2022/05/10 00:17:55;;;;;;;21.35;10.55;;;9.90;32.20;;;;;;5052097;28;20044;-79
2022/05/10 00:20:24;;;;;;;18.98;10.68;;;9.80;22.70;;;;;;5048367;28;20172;-78
2022/05/10 00:22:50;;;;;;;16.13;10.25;;;9.80;1.00;;;;;;5051116;28;20247;-79
2022/05/10 00:25:19;;;;;;;20.45;11.10;;;10.00;46.50;;;;;;5050058;28;20033;-79
2022/05/10 00:27:44;;;;;;;19.15;10.43;;;9.90;23.50;;;;;;5051012;28;20520;-79
2022/05/10 00:30:11;;;;;;;21.77;11.13;;;9.90;15.70;;;;;;5051301;28;20022;-79
2022/05/10 00:32:38;;;;;;;21.08;11.18;;;9.80;55.20;;;;;;5069829;28;20036;-79
2022/05/10 00:35:07;;;;;;;22.67;11.18;;;9.80;74.80;;;;;;5070950;28;20055;-79
2022/05/10 00:37:32;;;;;;;20.80;11.52;;;9.70;66.90;;;;;;5071547;28;20029;-79
2022/05/10 00:40:00;;;;;;;18.85;10.02;;;9.70;89.60;;;;;;5051194;28;20059;-79
2022/05/10 00:42:41;;;;;;;20.20;10.35;;;9.60;24.70;;;;;;5050900;28;20036;-79
2022/05/10 00:45:18;;;;;;;;;;;9.60;24.50;;;;;;5051040;28;20109;-79
2022/05/10 00:47:54;;;;;;;18.80;10.27;;;9.60;66.40;;;;;;5051387;28;19901;-79
2022/05/10 00:50:36;;;;;;;21.40;12.15;;;9.60;99.90;;;;;;5051421;28;20029;-79
2022/05/10 00:53:23;;;;;;;18.35;12.20;;;9.70;92.10;;;;;;5051224;28;20048;-79
2022/05/10 00:56:04;;;;;;;21.67;12.00;;;9.70;99.90;;;;;;5067739;28;20116;-80
2022/05/10 00:58:44;;;;;;;21.38;12.07;;;9.70;80.10;;;;;;5072313;28;20055;-80
2022/05/10 01:01:16;;;;;;;20.23;12.05;;;10.00;98.80;;;;;;5073032;28;20017;-79
2022/05/10 01:03:58;;;;;;;20.85;12.32;;;9.90;99.90;;;;;;5071546;28;20025;-80
2022/05/10 01:06:32;;;;;;;18.27;11.25;;;10.00;99.90;;;;;;5071897;28;20032;-79
2022/05/10 01:09:06;;;;;;;16.70;11.00;;;10.10;99.90;;;;;;5071263;28;20033;-79
2022/05/10 01:11:53;;;;;;;17.73;11.65;;;10.10;95.40;;;;;;5051212;28;20029;-80
2022/05/10 01:14:28;;;;;;;20.08;11.70;;;10.20;83.70;;;;;;5081405;22;20049;-79
2022/05/10 01:16:53;;;;;;;19.80;11.48;;;10.00;66.70;;;;;;5073772;28;20020;-78
2022/05/10 01:20:06;;;;;;;23.77;12.82;;;10.00;99.90;;;;;;5073771;28;20333;-78
2022/05/10 01:23:03;;;;;;;21.85;12.63;;;10.10;99.90;;;;;;5073534;28;20024;-77
2022/05/10 01:25:49;;;;;;;19.63;11.05;;;10.00;99.90;;;;;;5073439;28;20576;-78
2022/05/10 01:28:21;;;;;;;23.77;13.23;;;10.00;99.90;;;;;;5073622;28;20024;-79
2022/05/10 01:30:47;;;;;;;25.23;14.00;;;10.10;99.90;;;;;;5089213;28;20036;-79
2022/05/10 01:33:30;;;;;;;20.90;13.00;;;10.20;99.90;;;;;;5074064;28;20029;-79
2022/05/10 01:36:10;;;;;;;19.70;11.98;;;10.40;99.90;;;;;;5073689;28;20476;-78
2022/05/10 01:38:46;;;;;;;20.38;11.35;;;10.30;55.00;;;;;;5073418;28;20371;-78
2022/05/10 01:45:21;;;;;;;18.25;11.75;;;10.20;1.00;;;;;;5073737;28;20520;-79
2022/05/10 01:48:11;;;;;;;20.98;12.27;;;10.20;1.00;;;;;;5071988;28;20033;-79
2022/05/10 01:51:17;;;;;;;17.80;11.70;;;10.20;1.00;;;;;;5076850;28;20376;-79
2022/05/10 01:53:44;;;;;;;24.92;11.80;;;10.30;11.00;;;;;;5058534;28;20043;-79
2022/05/10 01:56:17;;;;;;;16.63;10.65;;;10.30;1.00;;;;;;5077308;28;20142;-79
2022/05/10 01:58:45;;;;;;;24.55;12.02;;;10.40;1.00;;;;;;5076361;28;20020;-79
2022/05/10 02:01:32;;;;;;;20.20;12.15;;;10.40;1.00;;;;;;5077201;28;20383;-79
2022/05/10 02:04:07;;;;;;;18.33;11.48;;;10.50;1.00;;;;;;5075828;28;20395;-79
2022/05/10 02:06:43;;;;;;;19.90;12.23;;;10.60;24.10;;;;;;5077591;28;20035;-79
2022/05/10 02:09:30;;;;;;;22.38;12.30;;;10.60;21.00;;;;;;5077220;28;20165;-79
2022/05/10 02:12:01;;;;;;;21.75;12.60;;;10.60;12.50;;;;;;5077194;28;20020;-79
2022/05/10 02:14:33;;;;;;;22.60;13.50;;;10.60;1.00;;;;;;5075913;28;20052;-79
2022/05/10 02:17:19;;;;;;;25.73;13.95;;;10.70;1.00;;;;;;5077160;28;20498;-79
2022/05/10 02:19:51;;;;;;;20.23;13.10;;;10.80;81.70;;;;;;5077038;28;20032;-79
2022/05/10 02:22:33;;;;;;;23.75;13.75;;;11.00;42.80;;;;;;5076985;28;20032;-78
2022/05/10 02:25:17;;;;;;;20.73;13.13;;;11.00;24.60;;;;;;5075576;28;20043;-78
2022/05/10 02:27:54;;;;;;;20.40;13.25;;;11.00;56.50;;;;;;5076499;28;20081;-79
2022/05/10 02:30:23;;;;;;;20.48;11.82;;;11.00;48.60;;;;;;5077086;28;20025;-79
2022/05/10 02:33:08;;;;;;;18.00;11.67;;;11.00;6.80;;;;;;5076475;28;20069;-78
2022/05/10 02:35:48;;;;;;;20.65;13.00;;;11.10;45.30;;;;;;5065152;28;20466;-79
2022/05/10 02:38:18;;;;;;;19.63;12.55;;;11.20;34.80;;;;;;5056565;28;20033;-79
2022/05/10 02:40:45;;;;;;;17.90;11.60;;;11.20;22.50;;;;;;5056943;28;20060;-79
2022/05/10 02:43:22;;;;;;;17.83;11.98;;;11.20;83.10;;;;;;5056772;28;20021;-80
2022/05/10 02:45:48;;;;;;;22.75;12.98;;;11.30;97.80;;;;;;5056807;28;20399;-79
2022/05/10 02:48:20;;;;;;;22.45;12.48;;;11.40;99.90;;;;;;5056349;28;20468;-79
2022/05/10 02:50:45;;;;;;;22.73;12.77;;;11.30;95.40;;;;;;5056498;28;20055;-79
2022/05/10 02:53:11;;;;;;;23.20;13.65;;;11.40;99.90;;;;;;5056266;28;20055;-79
2022/05/10 02:55:43;;;;;;;19.73;12.10;;;11.40;99.90;;;;;;5056222;28;20123;-79
2022/05/10 02:58:26;;;;;;;22.48;12.73;;;11.40;99.90;;;;;;5055127;28;20021;-80
2022/05/10 03:01:05;;;;;;;23.73;12.80;;;11.30;99.90;;;;;;5055023;28;20067;-79
2022/05/10 03:03:33;;;;;;;21.57;13.20;;;11.40;99.90;;;;;;5056363;28;20025;-80
2022/05/10 03:05:58;;;;;;;19.05;12.00;;;11.40;99.90;;;;;;5055867;28;20130;-79
2022/05/10 03:08:24;;;;;;;18.98;11.95;;;11.40;99.90;;;;;;5056293;28;20031;-79
2022/05/10 03:10:49;;;;;;;19.67;12.05;;;11.40;99.90;;;;;;5056219;28;20388;-80
2022/05/10 03:13:15;;;;;;;20.20;12.25;;;11.40;99.90;;;;;;5070098;28;20073;-80
2022/05/10 03:15:41;;;;;;;21.38;13.38;;;11.40;99.90;;;;;;5055797;28;20036;-79
2022/05/10 03:18:07;;;;;;;23.17;12.10;;;11.40;99.90;;;;;;5056071;28;20021;-79
2022/05/10 03:20:32;;;;;;;17.85;11.70;;;11.40;99.90;;;;;;5055780;28;20018;-79
2022/05/10 03:22:58;;;;;;;20.60;12.77;;;11.40;99.90;;;;;;5055721;28;20049;-79
2022/05/10 03:25:25;;;;;;;17.10;10.95;;;11.60;99.90;;;;;;5071376;28;20063;-79
2022/05/10 03:27:51;;;;;;;17.45;11.25;;;11.60;99.90;;;;;;5055696;28;20029;-79
2022/05/10 03:30:17;;;;;;;17.55;12.05;;;11.50;95.70;;;;;;5055847;28;20543;-79
2022/05/10 03:32:43;;;;;;;20.77;12.15;;;11.60;99.90;;;;;;5070884;28;20022;-79
2022/05/10 03:35:11;;;;;;;17.88;11.82;;;11.50;86.10;;;;;;5055603;28;20035;-79
2022/05/10 03:37:36;;;;;;;21.60;12.88;;;11.60;99.90;;;;;;5055526;28;20424;-79
2022/05/10 03:40:03;;;;;;;18.98;12.48;;;11.70;99.90;;;;;;5055442;28;20057;-79
2022/05/10 03:42:29;;;;;;;17.17;11.50;;;11.80;99.90;;;;;;5055623;28;20403;-79
2022/05/10 03:44:55;;;;;;;20.42;13.38;;;11.80;99.90;;;;;;5055441;28;20025;-79
2022/05/10 03:47:26;;;;;;;17.00;11.07;;;11.80;99.90;;;;;;5055395;28;20371;-80
2022/05/10 03:49:54;;;;;;;20.20;12.65;;;11.90;99.90;;;;;;5055290;28;20384;-79
2022/05/10 03:52:19;;;;;;;21.63;12.32;;;11.90;99.90;;;;;;5055496;28;20021;-80
2022/05/10 03:54:46;;;;;;;17.00;11.88;;;12.00;99.90;;;;;;5055462;28;20017;-80
2022/05/10 03:57:11;;;;;;;16.83;11.40;;;11.90;98.70;;;;;;5055239;28;20154;-79
2022/05/10 03:59:41;;;;;;;16.63;11.38;;;11.90;99.90;;;;;;5054784;28;20104;-79
2022/05/10 04:02:09;;;;;;;21.02;12.15;;;11.90;99.90;;;;;;5053239;28;20033;-78
2022/05/10 04:04:39;;;;;;;18.90;12.63;;;12.10;99.90;;;;;;5057003;28;20021;-79
2022/05/10 04:07:05;;;;;;;21.05;12.52;;;12.10;99.90;;;;;;5060175;28;20033;-78
2022/05/10 04:09:32;;;;;;;18.65;11.88;;;12.10;99.90;;;;;;5057388;28;20033;-79
2022/05/10 04:11:58;;;;;;;18.60;12.20;;;12.20;96.70;;;;;;5054256;28;20017;-78
2022/05/10 04:14:24;;;;;;;25.63;12.70;;;12.30;99.90;;;;;;5047887;28;20470;-78
2022/05/10 04:16:49;;;;;;;21.90;12.57;;;12.50;99.90;;;;;;5051634;28;20043;-78
2022/05/10 04:19:15;;;;;;;18.52;12.55;;;12.50;97.20;;;;;;5039447;28;20017;-79
2022/05/10 04:21:40;;;;;;;19.70;12.50;;;12.60;99.90;;;;;;5035606;28;20079;-80
2022/05/10 04:24:07;;;;;;;20.17;12.30;;;12.60;55.50;;;;;;5038702;28;20032;-78
2022/05/10 04:26:32;;;;;;;20.80;13.38;;;12.70;99.90;;;;;;5054419;28;20039;-78
2022/05/10 04:28:58;;;;;;;18.35;12.48;;;12.70;99.90;;;;;;5054369;28;20025;-79
2022/05/10 04:31:24;;;;;;;20.45;12.60;;;12.90;97.20;;;;;;5054840;28;20021;-79
2022/05/10 04:33:50;;;;;;;17.50;11.65;;;13.00;99.90;;;;;;5054185;28;20120;-79
2022/05/10 04:36:15;;;;;;;18.17;12.10;;;13.10;74.80;;;;;;5053514;28;20028;-81
2022/05/10 04:38:44;;;;;;;19.80;11.75;;;13.10;99.90;;;;;;5054390;28;20032;-79
2022/05/10 04:41:26;;;;;;;18.80;12.35;;;13.20;99.90;;;;;;5054164;28;20417;-79
2022/05/10 04:44:06;;;;;;;16.20;11.70;;;13.20;47.80;;;;;;5053856;28;20025;-78
2022/05/10 04:46:33;;;;;;;17.25;10.90;;;13.40;99.90;;;;;;5054034;28;20029;-79
2022/05/10 04:48:59;;;;;;;19.38;11.23;;;13.50;94.90;;;;;;5053843;28;20025;-79
2022/05/10 04:51:25;;;;;;;18.23;11.48;;;13.50;88.60;;;;;;5053875;28;20313;-78
2022/05/10 04:53:55;;;;;;;19.42;10.77;;;13.60;45.20;;;;;;5053918;28;20522;-79
2022/05/10 04:56:21;;;;;;;18.67;11.10;;;13.60;34.50;;;;;;5054071;28;20025;-79
2022/05/10 04:58:47;;;;;;;19.25;11.32;;;13.60;56.30;;;;;;5054126;28;20025;-79
2022/05/10 05:01:16;;;;;;;14.98;9.95;;;13.80;62.40;;;;;;5053748;28;20511;-79
2022/05/10 05:03:44;;;;;;;17.47;10.50;;;13.80;60.20;;;;;;5053892;28;20627;-79
2022/05/10 05:06:09;;;;;;;15.88;10.20;;;13.90;49.70;;;;;;5053904;28;20024;-79
2022/05/10 05:08:35;;;;;;;17.30;10.00;;;13.90;35.80;;;;;;5053737;28;20021;-79
2022/05/10 05:11:01;;;;;;;16.70;10.10;;;14.00;18.40;;;;;;5053372;28;20024;-79
2022/05/10 05:13:27;;;;;;;19.75;10.73;;;14.20;28.00;;;;;;5052536;28;20049;-79
2022/05/10 05:15:53;;;;;;;15.02;9.55;;;14.20;35.40;;;;;;5053468;28;20143;-78
2022/05/10 05:18:18;;;;;;;19.58;10.10;;;14.30;22.90;;;;;;5053680;28;20075;-79
2022/05/10 05:20:44;;;;;;;15.70;9.63;;;14.40;1.00;;;;;;5052139;28;20029;-79
2022/05/10 05:23:11;;;;;;;14.27;9.55;;;14.50;10.40;;;;;;5053102;28;20029;-78
2022/05/10 05:25:45;;;;;;;17.60;10.23;;;14.60;7.50;;;;;;5053056;28;20045;-79
2022/05/10 05:28:11;;;;;;;18.63;9.65;;;14.70;1.00;;;;;;5052322;28;20120;-79
2022/05/10 05:30:39;;;;;;;15.63;9.90;;;14.80;1.00;;;;;;5053327;28;20053;-79
2022/05/10 05:33:05;;;;;;;12.02;8.55;;;15.00;1.00;;;;;;5034526;28;20022;-79
2022/05/10 05:35:31;;;;;;;16.48;9.35;;;15.10;1.00;;;;;;5033255;28;20017;-78
2022/05/10 05:37:57;;;;;;;13.52;8.68;;;15.20;1.00;;;;;;5033383;28;20391;-79
2022/05/10 05:40:23;;;;;;;13.13;9.30;;;15.30;1.00;;;;;;5033363;28;20076;-79
2022/05/10 05:42:50;;;;;;;14.20;9.45;;;15.40;1.00;;;;;;5033285;28;20385;-79
2022/05/10 05:45:18;;;;;;;15.35;9.50;;;15.60;1.00;;;;;;5033104;28;20025;-79
2022/05/10 05:47:43;;;;;;;15.80;8.95;;;15.70;1.00;;;;;;5033434;28;20021;-79
2022/05/10 05:50:12;;;;;;;14.02;8.98;;;15.90;1.00;;;;;;5033163;28;20365;-79
2022/05/10 05:52:49;;;;;;;12.13;8.45;;;16.00;1.00;;;;;;5033211;28;20048;-79
2022/05/10 05:55:15;;;;;;;17.00;9.60;;;16.00;1.00;;;;;;5033095;28;20036;-79
2022/05/10 05:57:41;;;;;;;13.75;8.60;;;16.00;1.00;;;;;;5033070;28;20064;-79
2022/05/10 06:00:10;;;;;;;12.98;8.45;;;16.00;1.00;;;;;;5033707;28;20065;-79
2022/05/10 06:02:36;;;;;;;11.95;8.32;;;16.10;1.00;;;;;;5032911;28;20028;-79
2022/05/10 06:05:03;;;;;;;11.75;8.02;;;16.10;1.00;;;;;;5031750;28;20074;-78
2022/05/10 06:07:28;;;;;;;12.55;8.73;;;16.20;1.00;;;;;;5031772;28;20103;-79
2022/05/10 06:09:54;;;;;;;15.23;9.18;;;16.30;1.00;;;;;;5033109;28;20076;-78
2022/05/10 06:12:20;;;;;;;11.85;8.60;;;16.40;1.00;;;;;;5033132;28;20067;-79
2022/05/10 06:14:53;;;;;;;12.57;8.48;;;16.50;1.00;;;;;;5032085;28;20056;-79
2022/05/10 06:17:19;;;;;;;13.73;8.20;;;16.50;1.00;;;;;;5033282;28;20108;-78
2022/05/10 06:19:46;;;;;;;11.88;8.52;;;16.60;1.00;;;;;;5032891;28;20075;-79
2022/05/10 06:22:12;;;;;;;11.35;7.93;;;16.60;1.00;;;;;;5031676;28;20108;-79
2022/05/10 06:24:39;;;;;;;12.57;7.90;;;16.60;1.00;;;;;;5032949;28;20029;-78
2022/05/10 06:27:06;;;;;;;11.25;8.07;;;16.80;1.00;;;;;;5031523;28;20117;-79
2022/05/10 06:29:34;;;;;;;13.25;7.53;;;16.80;1.00;;;;;;5032266;28;20463;-79
2022/05/10 06:31:59;;;;;;;11.05;7.25;;;16.80;1.00;;;;;;5032149;28;20059;-79
2022/05/10 06:34:25;;;;;;;9.85;6.70;;;16.90;1.00;;;;;;5032414;28;20018;-78
2022/05/10 06:36:51;;;;;;;11.68;7.13;;;16.90;1.00;;;;;;5035755;28;20499;-79
2022/05/10 06:39:16;;;;;;;10.80;7.18;;;17.00;1.00;;;;;;5035715;28;20021;-79
2022/05/10 06:41:42;;;;;;;9.73;7.07;;;16.90;1.00;;;;;;5035751;28;20026;-79
2022/05/10 06:44:08;;;;;;;11.65;7.00;;;16.90;1.00;;;;;;5051154;28;20059;-79
2022/05/10 06:46:34;;;;;;;11.40;7.10;;;16.80;1.00;;;;;;5035599;28;20373;-79
2022/05/10 06:49:01;;;;;;;14.43;8.23;;;16.80;99.90;;;;;;5035735;28;20511;-79
2022/05/10 06:51:27;;;;;;;13.32;8.10;;;16.80;99.90;;;;;;5035525;28;20022;-79
2022/05/10 06:53:54;;;;;;;13.98;8.10;;;16.80;99.90;;;;;;5043954;28;20025;-79
2022/05/10 06:56:26;;;;;;;10.20;7.85;;;16.80;1.00;;;;;;5055551;28;20048;-79
2022/05/10 06:58:52;;;;;;;11.23;7.18;;;16.80;1.00;;;;;;5055419;28;20036;-79
2022/05/10 07:01:18;;;;;;;10.98;7.57;;;16.60;1.00;;;;;;5070298;28;20021;-79
2022/05/10 07:03:48;;;;;;;9.75;7.25;;;16.50;1.00;;;;;;5074985;28;20663;-79
2022/05/10 07:06:17;;;;;;;11.90;7.57;;;16.70;1.00;;;;;;5075178;28;20021;-79
2022/05/10 07:08:44;;;;;;;11.45;8.02;;;16.80;1.00;;;;;;5074995;28;20024;-79
2022/05/10 07:11:10;;;;;;;13.13;8.18;;;16.80;1.00;;;;;;5067652;28;20028;-79
2022/05/10 07:13:39;;;;;;;14.82;7.70;;;16.90;1.00;;;;;;5054807;28;20048;-79
2022/05/10 07:16:05;;;;;;;12.20;8.38;;;16.90;1.00;;;;;;5055396;28;20142;-79
2022/05/10 07:18:31;;;;;;;13.35;8.52;;;17.00;1.00;;;;;;5039437;28;20025;-79
2022/05/10 07:20:56;;;;;;;13.35;7.47;;;17.10;1.00;;;;;;5034524;28;20839;-79
2022/05/10 07:23:26;;;;;;;14.40;7.75;;;17.10;1.00;;;;;;5042780;28;20083;-79
2022/05/10 07:25:52;;;;;;;12.27;7.30;;;17.20;1.00;;;;;;5054740;28;20063;-78
2022/05/10 07:28:18;;;;;;;14.27;8.32;;;17.30;1.00;;;;;;5054883;28;20109;-79
2022/05/10 07:30:44;;;;;;;13.18;8.80;;;17.40;1.00;;;;;;5054461;28;20822;-79
2022/05/10 07:33:09;;;;;;;13.35;8.68;;;17.70;99.90;;;;;;5054695;28;20021;-79
2022/05/10 07:38:20;;;;;;;17.00;9.07;;;17.90;99.90;;;;;;5054958;28;20067;-78
2022/05/10 07:40:49;;;;;;;15.68;7.72;;;18.30;99.90;;;;;;5054338;28;20025;-79
2022/05/10 07:43:16;;;;;;;13.38;8.02;;;18.50;99.90;;;;;;5054923;28;20021;-79
2022/05/10 07:45:44;;;;;;;15.38;8.23;;;18.80;99.90;;;;;;5054545;28;20024;-78
2022/05/10 07:48:09;;;;;;;14.38;7.63;;;19.10;99.90;;;;;;5054000;28;20032;-79
2022/05/10 07:50:35;;;;;;;12.30;7.55;;;19.20;99.90;;;;;;5054378;28;20017;-78
2022/05/10 07:53:06;;;;;;;11.98;7.90;;;19.30;99.90;;;;;;5037016;28;20076;-78
2022/05/10 07:55:35;;;;;;;15.25;7.97;;;19.60;99.90;;;;;;5054483;28;20037;-79
2022/05/10 07:58:01;;;;;;;13.85;7.80;;;19.60;99.90;;;;;;5047141;28;20136;-79
2022/05/10 08:00:27;;;;;;;12.48;7.80;;;19.90;99.90;;;;;;5034463;28;20032;-79
2022/05/10 08:02:53;;;;;;;11.75;7.35;;;20.20;99.90;;;;;;5050967;28;20029;-79
2022/05/10 08:05:21;;;;;;;11.20;6.82;;;20.40;99.90;;;;;;5053897;28;20025;-79
2022/05/10 08:07:47;;;;;;;9.98;6.32;;;20.60;99.90;;;;;;5048569;28;20029;-80
2022/05/10 08:10:14;;;;;;;9.88;6.55;;;20.30;99.90;;;;;;5034011;28;20028;-79
2022/05/10 08:12:39;;;;;;;11.43;6.72;;;20.30;99.90;;;;;;5033878;28;20104;-79
2022/05/10 08:15:06;;;;;;;14.43;7.25;;;20.20;99.90;;;;;;5033392;28;20199;-78
2022/05/10 08:17:31;;;;;;;11.52;6.68;;;20.30;99.90;;;;;;5033299;28;20033;-79
2022/05/10 08:19:57;;;;;;;15.40;6.90;;;20.70;99.90;;;;;;5033558;28;20026;-78
2022/05/10 08:22:22;;;;;;;10.63;6.90;;;21.10;99.90;;;;;;5033330;28;20528;-78
2022/05/10 08:24:48;;;;;;;13.27;7.82;;;21.90;99.90;;;;;;5033469;28;20048;-78
2022/05/10 08:27:14;;;;;;;14.88;7.72;;;22.30;99.90;;;;;;5033337;28;20204;-79
2022/05/10 08:29:40;;;;;;;13.20;7.35;;;22.70;99.90;;;;;;5033757;28;20026;-79
2022/05/10 08:32:06;;;;;;;13.23;7.38;;;22.80;99.90;;;;;;5033571;28;20033;-79
2022/05/10 08:34:34;;;;;;;12.38;7.30;;;22.90;99.90;;;;;;5033271;28;20036;-78
2022/05/10 08:37:01;;;;;;;9.45;6.60;;;22.80;99.90;;;;;;5033519;28;20024;-78
2022/05/10 08:39:27;;;;;;;11.70;7.38;;;22.70;99.90;;;;;;5037209;28;20036;-79
2022/05/10 08:41:57;;;;;;;13.20;6.65;;;22.50;99.90;;;;;;5063288;28;20032;-79
2022/05/10 08:44:25;;;;;;;15.05;8.57;;;22.20;99.90;;;;;;5073067;28;20074;-78
2022/05/10 08:47:06;;;;;;;12.68;7.28;;;22.20;99.90;;;;;;5072933;28;20482;-79
2022/05/10 08:49:36;;;;;;;13.82;7.80;;;22.30;99.90;;;;;;5032114;28;20041;-79
2022/05/10 08:52:03;;;;;;;9.85;7.43;;;22.30;99.90;;;;;;5032962;28;20100;-78
2022/05/10 08:54:29;;;;;;;13.38;7.80;;;22.20;99.90;;;;;;5033043;28;20367;-80
2022/05/10 08:57:05;;;;;;;13.05;7.03;;;22.40;99.90;;;;;;5032784;28;20108;-79
2022/05/10 08:59:57;;;;;;;12.05;7.13;;;22.40;99.90;;;;;;5033016;28;20465;-79
2022/05/10 09:02:45;;;;;;;12.82;7.75;;;22.50;99.90;;;;;;5035147;28;20033;-79
2022/05/10 09:05:34;;;;;;;10.55;7.35;;;23.10;99.90;;;;;;5032855;28;20400;-80
2022/05/10 09:08:17;;;;;;;13.50;7.57;;;23.50;99.90;;;;;;5045958;28;20041;-79
2022/05/10 09:10:59;;;;;;;12.02;7.38;;;24.30;99.90;;;;;;5067920;28;20102;-79
2022/05/10 09:13:25;;;;;;;9.57;7.20;;;24.60;99.90;;;;;;5071334;28;20044;-79
2022/05/10 09:16:00;;;;;;;12.45;7.55;;;25.90;99.90;;;;;;5063086;28;20064;-79
2022/05/10 09:18:30;;;;;;;11.43;7.78;;;27.60;99.90;;;;;;5037239;28;20034;-79
2022/05/10 09:21:19;;;;;;;13.05;7.85;;;27.40;99.90;;;;;;5040205;28;20033;-79
2022/05/10 09:24:10;;;;;;;12.23;7.70;;;26.80;99.90;;;;;;5031748;28;20025;-79
2022/05/10 09:26:44;;;;;;;12.48;8.27;;;25.70;99.90;;;;;;5032720;28;20030;-79
2022/05/10 09:29:30;;;;;;;10.85;8.20;;;25.80;99.90;;;;;;5033513;28;20064;-80
2022/05/10 09:34:47;;;;;;;11.02;7.68;;;26.10;99.90;;;;;;5041253;28;20112;-79
2022/05/10 09:37:34;;;;;;;11.95;8.00;;;25.80;99.90;;;;;;5045198;28;20445;-79
2022/05/10 09:40:09;;;;;;;12.32;7.82;;;25.90;99.90;;;;;;5032467;28;20401;-79
2022/05/10 09:42:41;;;;;;;15.00;7.65;;;25.50;99.90;;;;;;5046003;28;20113;-80
2022/05/10 09:45:13;;;;;;;13.38;8.27;;;25.10;99.90;;;;;;5048165;28;20025;-79
2022/05/10 09:47:40;;;;;;;11.25;7.72;;;24.80;99.90;;;;;;5051797;28;20035;-79
2022/05/10 09:50:14;;;;;;;14.15;7.97;;;24.50;99.90;;;;;;5052197;28;20126;-79
2022/05/10 09:52:40;;;;;;;10.85;7.18;;;24.40;99.90;;;;;;5051826;28;20036;-79
2022/05/10 09:55:26;;;;;;;12.30;8.48;;;24.70;99.90;;;;;;5047989;28;20013;-79
2022/05/10 09:57:54;;;;;;;10.80;7.30;;;24.60;99.90;;;;;;5051278;28;20037;-78
2022/05/10 10:00:52;;;;;;;11.60;7.43;;;24.70;99.90;;;;;;5051243;28;20021;-78
2022/05/10 10:03:31;;;;;;;15.48;7.82;;;24.70;99.90;;;;;;5051699;28;20024;-77
2022/05/10 10:06:20;;;;;;;14.35;7.82;;;24.60;99.90;;;;;;5051715;28;20017;-77
2022/05/10 10:08:54;;;;;;;11.20;7.70;;;24.60;99.90;;;;;;5051538;28;20037;-78
2022/05/10 10:11:23;;;;;;;11.23;7.18;;;24.50;99.90;;;;;;5054831;28;20043;-79
2022/05/10 10:13:56;;;;;;;13.50;7.25;;;24.10;99.90;;;;;;5049926;28;20145;-79
2022/05/10 10:16:32;;;;;;;10.48;6.57;;;23.90;99.90;;;;;;5051330;28;20365;-79
2022/05/10 10:19:07;;;;;;;11.88;6.63;;;23.80;99.90;;;;;;5055724;28;20029;-79
2022/05/10 10:21:41;;;;;;;10.43;5.50;;;23.70;99.90;;;;;;5042734;28;20109;-79
2022/05/10 10:24:07;;;;;;;8.77;5.90;;;23.70;99.90;;;;;;5051113;28;20045;-79
2022/05/10 10:26:46;;;;;;;10.10;5.68;;;23.30;99.90;;;;;;5037811;28;20026;-79
2022/05/10 10:29:21;;;;;;;9.10;5.50;;;23.00;99.90;;;;;;5035446;28;20401;-79
2022/05/10 10:31:59;;;;;;;9.18;5.38;;;23.10;99.90;;;;;;5038100;28;20033;-79
2022/05/10 10:34:48;;;;;;;7.72;4.90;;;23.20;99.90;;;;;;5035606;28;20022;-79
2022/05/10 10:37:27;;;;;;;10.60;4.35;;;23.50;99.90;;;;;;5035681;28;20021;-79
2022/05/10 10:40:10;;;;;;;10.93;4.70;;;24.10;99.90;;;;;;5035200;28;20124;-80
2022/05/10 10:42:52;;;;;;;8.40;4.40;;;24.00;99.90;;;;;;5046355;28;20056;-80
2022/05/10 10:45:22;;;;;;;7.93;4.15;;;24.50;99.90;;;;;;5037563;28;20113;-80
2022/05/10 10:48:03;;;;;;;4.63;3.70;;;24.70;99.90;;;;;;5054435;28;20024;-79
2022/05/10 10:50:35;;;;;;;10.18;4.15;;;25.20;99.90;;;;;;5046202;28;20080;-79
2022/05/10 10:53:03;;;;;;;10.45;4.35;;;25.00;99.90;;;;;;5034796;28;20067;-79
2022/05/10 10:55:56;;;;;;;6.45;4.00;;;24.50;99.90;;;;;;5034946;28;20037;-79
2022/05/10 10:58:38;;;;;;;6.72;3.90;;;24.90;99.90;;;;;;5057130;28;20380;-79
2022/05/10 11:01:31;;;;;;;7.85;4.35;;;25.00;99.90;;;;;;5053951;28;20021;-79
2022/05/10 11:04:42;;;;;;;6.53;4.07;;;25.30;99.90;;;;;;5053578;28;20476;-79
2022/05/10 11:07:25;;;;;;;5.22;4.13;;;26.10;99.90;;;;;;5054642;28;20029;-79
2022/05/10 11:10:06;;;;;;;8.85;4.18;;;26.20;99.90;;;;;;5054858;28;20029;-80
2022/05/10 11:13:01;;;;;;;5.22;3.70;;;26.20;99.90;;;;;;5054993;28;20043;-79
2022/05/10 11:15:36;;;;;;;6.30;3.78;;;26.90;99.90;;;;;;5053475;28;20053;-79
2022/05/10 11:18:20;;;;;;;8.15;3.72;;;27.10;99.90;;;;;;5054794;28;20029;-79
2022/05/10 11:20:55;;;;;;;4.85;3.67;;;27.30;99.90;;;;;;5054590;28;20032;-80
2022/05/10 11:23:49;;;;;;;5.72;3.90;;;27.00;99.90;;;;;;5052447;28;20147;-80
2022/05/10 11:26:36;;;;;;;5.35;2.97;;;27.50;99.90;;;;;;5054568;28;20456;-80
2022/05/10 11:29:10;;;;;;;6.90;3.00;;;27.60;99.90;;;;;;5054508;28;20368;-80
2022/05/10 11:32:20;;;;;;;4.30;2.45;;;27.20;99.90;;;;;;5054535;28;20052;-81
2022/05/10 11:35:16;;;;;;;6.88;2.97;;;27.00;99.90;;;;;;5033603;28;20484;-79
2022/05/10 11:37:58;;;;;;;7.30;2.35;;;26.90;99.90;;;;;;5051129;28;20029;-80
2022/05/10 11:40:32;;;;;;;4.47;2.10;;;27.50;99.90;;;;;;5054190;28;20122;-79
2022/05/10 11:43:47;;;;;;;4.88;1.80;;;26.90;99.90;;;;;;5054396;28;20104;-80
2022/05/10 11:46:44;;;;;;;4.97;1.77;;;27.10;99.90;;;;;;5053420;28;20028;-80
2022/05/10 11:49:39;;;;;;;5.22;1.50;;;27.50;99.90;;;;;;5054780;28;20029;-80
2022/05/10 11:52:18;;;;;;;2.85;2.22;;;27.70;99.90;;;;;;5056320;28;20094;-79
2022/05/10 11:54:50;;;;;;;;;;;27.80;99.90;;;;;;5055762;28;20040;-80
2022/05/10 11:57:19;;;;;;;4.18;1.77;;;27.80;99.90;;;;;;5054218;28;19919;-80
2022/05/10 11:59:46;;;;;;;3.70;2.10;;;27.40;99.90;;;;;;5054048;28;20017;-80
2022/05/10 12:02:29;;;;;;;2.75;1.80;;;27.40;99.90;;;;;;5053916;28;20338;-79
2022/05/10 12:05:10;;;;;;;3.55;2.05;;;27.20;99.90;;;;;;5052573;28;20039;-79
2022/05/10 12:07:46;;;;;;;5.72;2.25;;;26.80;99.90;;;;;;5053605;28;20488;-79
2022/05/10 12:10:49;;;;;;;7.28;2.10;;;26.80;99.90;;;;;;5053825;28;20044;-79
2022/05/10 12:22:12;;;;;;;6.60;2.83;;;25.30;99.90;;;;;;5053843;28;20053;-79
2022/05/10 12:24:56;;;;;;;8.60;3.05;;;25.90;99.90;;;;;;5053770;28;20025;-80
2022/05/10 12:27:33;;;;;;;8.07;3.03;;;25.70;99.90;;;;;;5053739;28;20108;-79
2022/05/10 12:29:59;;;;;;;9.80;3.25;;;25.60;99.90;;;;;;5059626;28;20021;-82
2022/05/10 12:32:40;;;;;;;6.80;3.38;;;25.60;99.90;;;;;;5073704;28;20115;-82
2022/05/10 12:35:21;;;;;;;4.15;2.30;;;25.30;99.90;;;;;;5074353;28;20079;-81
2022/05/10 12:37:59;;;;;;;5.78;3.10;;;25.50;99.90;;;;;;5064556;28;20025;-82
2022/05/10 12:40:31;;;;;;;6.35;2.47;;;25.20;99.90;;;;;;5053892;28;20032;-82
2022/05/10 12:43:20;;;;;;;7.00;3.08;;;24.80;99.90;;;;;;5053978;28;20024;-82
2022/05/10 12:45:55;;;;;;;8.27;3.58;;;24.70;99.90;;;;;;5053700;28;20029;-81
2022/05/10 12:48:53;;;;;;;6.38;2.80;;;24.50;99.90;;;;;;5052477;28;20041;-82
2022/05/10 12:52:02;;;;;;;6.15;2.88;;;24.30;99.90;;;;;;5056194;28;20055;-81
2022/05/10 12:54:42;;;;;;;5.18;3.10;;;23.50;99.90;;;;;;5028155;28;20045;-81
2022/05/10 12:57:19;;;;;;;4.40;2.45;;;23.40;99.90;;;;;;5049623;28;20021;-81
2022/05/10 13:00:07;;;;;;;7.18;2.83;;;23.20;99.90;;;;;;5051126;28;20025;-81
2022/05/10 13:02:36;;;;;;;5.33;3.17;;;23.30;99.90;;;;;;5053702;28;20130;-81
2022/05/10 13:05:06;;;;;;;4.15;2.72;;;23.20;99.90;;;;;;5053244;28;20047;-81
2022/05/10 13:08:00;;;;;;;3.90;2.80;;;23.30;99.90;;;;;;5058623;28;20428;-81
2022/05/10 13:10:28;;;;;;;7.20;3.25;;;23.00;99.90;;;;;;5074155;28;20020;-81
2022/05/10 13:13:01;;;;;;;6.32;2.97;;;23.20;99.90;;;;;;5073141;28;20042;-81
2022/05/10 13:15:29;;;;;;;4.50;2.90;;;23.20;99.90;;;;;;5071867;28;20056;-81
2022/05/10 13:17:57;;;;;;;4.93;3.05;;;22.90;99.90;;;;;;5072753;28;20029;-81
2022/05/10 13:20:28;;;;;;;6.43;3.15;;;22.60;99.90;;;;;;5072967;28;20483;-81
2022/05/10 13:23:01;;;;;;;7.93;3.58;;;22.70;99.90;;;;;;5073102;28;20660;-80
2022/05/10 13:25:33;;;;;;;5.38;2.90;;;22.50;99.90;;;;;;5072976;28;20096;-80